createdAt,value
2022-12-31T00:00:19.593Z,100.00
2022-12-31T00:02:46.571Z,100.00
2022-12-31T00:05:14.648Z,100.00
2022-12-31T00:10:07.947Z,100.00
2022-12-31T00:12:34.709Z,100.00
2022-12-31T00:15:01.701Z,100.00
2022-12-31T00:17:28.575Z,100.00
2022-12-31T00:19:55.389Z,100.00
2022-12-31T00:22:22.224Z,100.00
2022-12-31T00:24:49.072Z,100.00
2022-12-31T00:27:16.729Z,100.00
2022-12-31T00:29:43.586Z,100.00
2022-12-31T00:32:10.551Z,100.00
2022-12-31T00:34:37.342Z,100.00
2022-12-31T00:37:04.203Z,100.00
2022-12-31T00:39:30.993Z,100.00
2022-12-31T00:41:57.780Z,100.00
2022-12-31T00:44:24.674Z,100.00
2022-12-31T00:46:51.501Z,100.00
2022-12-31T00:49:18.347Z,100.00
2022-12-31T00:51:46.615Z,100.00
2022-12-31T00:54:14.120Z,100.00
2022-12-31T00:56:40.871Z,100.00
2022-12-31T00:59:07.666Z,100.00
2022-12-31T01:01:38.455Z,100.00
2022-12-31T01:04:16.548Z,100.00
2022-12-31T01:06:44.093Z,100.00
2022-12-31T01:09:12.860Z,100.00
2022-12-31T01:11:39.666Z,100.00
2022-12-31T01:14:13.615Z,100.00
2022-12-31T01:16:48.702Z,100.00
2022-12-31T01:19:23.222Z,100.00
2022-12-31T01:21:51.402Z,100.00
2022-12-31T01:24:18.829Z,100.00
2022-12-31T01:26:46.571Z,100.00
2022-12-31T01:29:14.461Z,100.00
2022-12-31T01:31:41.641Z,100.00
2022-12-31T01:34:08.533Z,100.00
2022-12-31T01:36:38.115Z,100.00
2022-12-31T01:39:08.051Z,100.00
2022-12-31T01:41:40.066Z,100.00
2022-12-31T01:44:30.060Z,100.00
2022-12-31T01:47:00.996Z,100.00
2022-12-31T01:49:45.857Z,100.00
2022-12-31T01:52:31.435Z,100.00
2022-12-31T01:55:20.017Z,100.00
2022-12-31T01:57:50.226Z,100.00
2022-12-31T02:00:17.702Z,100.00
2022-12-31T02:02:45.027Z,100.00
2022-12-31T02:05:25.510Z,100.00
2022-12-31T02:07:54.504Z,100.00
2022-12-31T02:10:21.412Z,100.00
2022-12-31T02:12:48.811Z,100.00
2022-12-31T02:15:16.104Z,100.00
2022-12-31T02:17:54.911Z,100.00
2022-12-31T02:21:15.730Z,100.00
2022-12-31T02:24:04.433Z,100.00
2022-12-31T02:26:56.105Z,100.00
2022-12-31T02:29:48.485Z,100.00
2022-12-31T02:32:39.275Z,100.00
2022-12-31T02:35:16.307Z,100.00
2022-12-31T02:37:48.298Z,100.00
2022-12-31T02:40:19.210Z,100.00
2022-12-31T02:42:51.524Z,100.00
2022-12-31T02:45:39.312Z,100.00
2022-12-31T02:48:40.891Z,100.00
2022-12-31T02:51:38.008Z,100.00
2022-12-31T02:54:18.627Z,100.00
2022-12-31T02:57:12.079Z,100.00
2022-12-31T03:00:22.451Z,100.00
2022-12-31T03:02:51.545Z,100.00
2022-12-31T03:05:23.534Z,100.00
2022-12-31T03:07:50.734Z,100.00
2022-12-31T03:10:17.587Z,100.00
2022-12-31T03:12:48.318Z,100.00
2022-12-31T03:15:31.932Z,100.00
2022-12-31T03:18:05.234Z,100.00
2022-12-31T03:20:59.067Z,100.00
2022-12-31T03:23:31.668Z,100.00
2022-12-31T03:25:59.886Z,100.00
2022-12-31T03:28:30.195Z,100.00
2022-12-31T03:31:01.533Z,100.00
2022-12-31T03:33:46.575Z,100.00
2022-12-31T03:36:15.201Z,100.00
2022-12-31T03:38:42.292Z,100.00
2022-12-31T03:41:11.566Z,100.00
2022-12-31T03:43:38.566Z,100.00
2022-12-31T03:46:05.543Z,100.00
2022-12-31T03:48:32.401Z,100.00
2022-12-31T03:50:59.156Z,100.00
2022-12-31T03:53:26.087Z,100.00
2022-12-31T03:55:53.684Z,100.00
2022-12-31T03:58:21.665Z,100.00
2022-12-31T04:00:48.503Z,100.00
2022-12-31T04:03:15.345Z,100.00
2022-12-31T04:05:42.189Z,100.00
2022-12-31T04:08:08.942Z,100.00
2022-12-31T04:10:35.784Z,100.00
2022-12-31T04:13:04.621Z,100.00
2022-12-31T04:15:31.747Z,100.00
2022-12-31T04:17:58.516Z,100.00
2022-12-31T04:20:25.365Z,100.00
2022-12-31T04:22:52.172Z,100.00
2022-12-31T04:25:19.022Z,100.00
2022-12-31T04:27:45.779Z,100.00
2022-12-31T04:30:13.522Z,100.00
2022-12-31T04:32:40.494Z,100.00
2022-12-31T04:35:08.409Z,100.00
2022-12-31T04:37:35.205Z,100.00
2022-12-31T04:40:06.286Z,100.00
2022-12-31T04:42:34.847Z,100.00
2022-12-31T04:45:01.725Z,100.00
2022-12-31T04:47:28.548Z,100.00
2022-12-31T04:49:55.500Z,100.00
2022-12-31T04:52:22.856Z,100.00
2022-12-31T04:54:49.709Z,100.00
2022-12-31T04:57:16.767Z,100.00
2022-12-31T04:59:43.596Z,100.00
2022-12-31T05:02:10.500Z,100.00
2022-12-31T05:04:37.414Z,100.00
2022-12-31T05:07:04.324Z,100.00
2022-12-31T05:09:31.228Z,100.00
2022-12-31T05:11:58.221Z,100.00
2022-12-31T05:14:25.312Z,100.00
2022-12-31T05:16:52.519Z,100.00
2022-12-31T05:19:19.386Z,100.00
2022-12-31T05:22:06.095Z,100.00
2022-12-31T05:24:32.873Z,100.00
2022-12-31T05:26:59.992Z,100.00
2022-12-31T05:29:26.947Z,100.00
2022-12-31T05:31:53.813Z,100.00
2022-12-31T05:34:20.705Z,100.00
2022-12-31T05:36:47.471Z,100.00
2022-12-31T05:39:14.302Z,100.00
2022-12-31T05:41:41.054Z,100.00
2022-12-31T05:44:07.801Z,100.00
2022-12-31T05:46:34.601Z,100.00
2022-12-31T05:49:01.369Z,100.00
2022-12-31T05:51:28.131Z,100.00
2022-12-31T05:53:54.997Z,100.00
2022-12-31T05:56:21.808Z,100.00
2022-12-31T05:58:48.559Z,100.00
2022-12-31T06:01:15.447Z,100.00
2022-12-31T06:03:42.385Z,100.00
2022-12-31T06:06:09.221Z,100.00
2022-12-31T06:08:35.998Z,100.00
2022-12-31T06:11:03.064Z,100.00
2022-12-31T06:13:29.893Z,100.00
2022-12-31T06:15:56.867Z,100.00
2022-12-31T06:18:23.667Z,100.00
2022-12-31T06:20:50.485Z,100.00
2022-12-31T06:23:17.234Z,100.00
2022-12-31T06:25:44.125Z,100.00
2022-12-31T06:28:16.163Z,100.00
2022-12-31T06:30:47.185Z,100.00
2022-12-31T06:33:14.172Z,100.00
2022-12-31T06:35:41.000Z,100.00
2022-12-31T06:38:07.804Z,100.00
2022-12-31T06:40:37.610Z,100.00
2022-12-31T06:43:04.433Z,100.00
2022-12-31T06:45:31.309Z,100.00
2022-12-31T06:47:58.068Z,100.00
2022-12-31T06:50:24.819Z,100.00
2022-12-31T06:52:51.602Z,100.00
2022-12-31T06:55:18.679Z,100.00
2022-12-31T06:57:45.884Z,100.00
2022-12-31T07:00:13.680Z,100.00
2022-12-31T07:03:16.331Z,100.00
2022-12-31T07:06:01.619Z,100.00
2022-12-31T07:09:09.968Z,100.00
2022-12-31T07:11:56.326Z,100.00
2022-12-31T07:14:41.839Z,100.00
2022-12-31T07:17:29.042Z,100.00
2022-12-31T07:20:01.272Z,100.00
2022-12-31T07:22:28.366Z,100.00
2022-12-31T07:24:55.544Z,100.00
2022-12-31T07:27:50.086Z,100.00
2022-12-31T07:30:46.789Z,100.00
2022-12-31T07:33:46.824Z,100.00
2022-12-31T07:37:16.995Z,100.00
2022-12-31T07:40:04.334Z,100.00
2022-12-31T07:42:44.599Z,100.00
2022-12-31T07:45:25.165Z,100.00
2022-12-31T07:47:54.296Z,100.00
2022-12-31T07:50:24.810Z,100.00
2022-12-31T07:52:51.970Z,100.00
2022-12-31T07:55:18.807Z,100.00
2022-12-31T07:58:06.819Z,100.00
2022-12-31T08:00:33.940Z,100.00
2022-12-31T08:03:34.210Z,100.00
2022-12-31T08:06:12.425Z,100.00
2022-12-31T08:08:44.163Z,100.00
2022-12-31T08:11:34.409Z,100.00
2022-12-31T08:14:02.719Z,100.00
2022-12-31T08:16:30.504Z,100.00
2022-12-31T08:18:57.744Z,100.00
2022-12-31T08:21:57.762Z,100.00
2022-12-31T08:24:54.741Z,100.00
2022-12-31T08:27:48.594Z,100.00
2022-12-31T08:30:19.408Z,100.00
2022-12-31T08:32:58.121Z,100.00
2022-12-31T08:36:13.472Z,100.00
2022-12-31T08:39:03.416Z,100.00
2022-12-31T08:41:45.972Z,100.00
2022-12-31T08:44:24.499Z,100.00
2022-12-31T08:47:00.171Z,100.00
2022-12-31T08:49:31.121Z,100.00
2022-12-31T08:51:59.837Z,100.00
2022-12-31T08:54:27.224Z,100.00
2022-12-31T08:57:20.788Z,100.00
2022-12-31T08:59:53.427Z,100.00
2022-12-31T09:02:48.171Z,100.00
2022-12-31T09:05:22.748Z,100.00
2022-12-31T09:07:58.482Z,100.00
2022-12-31T09:10:53.293Z,100.00
2022-12-31T09:13:43.567Z,100.00
2022-12-31T09:16:28.413Z,100.00
2022-12-31T09:18:55.292Z,100.00
2022-12-31T09:21:22.316Z,100.00
2022-12-31T09:23:49.668Z,100.00
2022-12-31T09:26:40.722Z,100.00
2022-12-31T09:29:29.377Z,100.00
2022-12-31T09:32:11.982Z,100.00
2022-12-31T09:35:29.934Z,100.00
2022-12-31T09:38:11.259Z,100.00
2022-12-31T09:41:16.719Z,100.00
2022-12-31T09:44:52.976Z,100.00
2022-12-31T09:48:29.663Z,100.00
2022-12-31T09:51:05.644Z,100.00
2022-12-31T09:53:42.712Z,100.00
2022-12-31T09:56:46.012Z,100.00
2022-12-31T09:59:33.137Z,100.00
2022-12-31T10:02:24.263Z,100.00
2022-12-31T10:05:28.698Z,100.00
2022-12-31T10:08:12.110Z,100.00
2022-12-31T10:11:12.399Z,100.00
2022-12-31T10:13:39.134Z,100.00
2022-12-31T10:16:24.981Z,100.00
2022-12-31T10:19:43.762Z,100.00
2022-12-31T10:22:46.820Z,100.00
2022-12-31T10:25:38.943Z,100.00
2022-12-31T10:28:39.025Z,100.00
2022-12-31T10:31:46.363Z,100.00
2022-12-31T10:34:51.668Z,100.00
2022-12-31T10:37:28.873Z,100.00
2022-12-31T10:40:39.236Z,100.00
2022-12-31T10:43:49.068Z,100.00
2022-12-31T10:46:38.174Z,100.00
2022-12-31T10:49:47.850Z,100.00
2022-12-31T10:52:41.689Z,100.00
2022-12-31T10:55:38.702Z,100.00
2022-12-31T10:58:53.046Z,100.00
2022-12-31T11:01:56.579Z,100.00
2022-12-31T11:04:53.514Z,100.00
2022-12-31T11:08:02.644Z,100.00
2022-12-31T11:11:08.646Z,100.00
2022-12-31T11:14:26.658Z,100.00
2022-12-31T11:17:34.466Z,100.00
2022-12-31T11:20:33.199Z,100.00
2022-12-31T11:23:48.143Z,100.00
2022-12-31T11:26:36.415Z,100.00
2022-12-31T11:29:30.815Z,100.00
2022-12-31T11:32:18.906Z,100.00
2022-12-31T11:34:48.683Z,100.00
2022-12-31T11:37:31.723Z,100.00
2022-12-31T11:40:31.510Z,99.67
2022-12-31T11:43:05.018Z,99.42
2022-12-31T11:46:01.011Z,98.26
2022-12-31T11:49:18.995Z,95.27
2022-12-31T11:52:21.630Z,98.77
2022-12-31T11:55:04.897Z,99.42
2022-12-31T11:57:38.416Z,95.58
2022-12-31T12:00:21.317Z,97.79
2022-12-31T12:02:51.135Z,98.93
2022-12-31T12:05:23.301Z,97.66
2022-12-31T12:07:52.553Z,97.38
2022-12-31T12:10:38.320Z,97.09
2022-12-31T12:13:23.253Z,95.47
2022-12-31T12:16:02.914Z,96.33
2022-12-31T12:18:45.112Z,98.02
2022-12-31T12:21:24.217Z,93.62
2022-12-31T12:24:03.846Z,96.40
2022-12-31T12:26:41.566Z,96.29
2022-12-31T12:29:22.312Z,95.32
2022-12-31T12:32:24.950Z,95.07
2022-12-31T12:34:52.744Z,95.17
2022-12-31T12:37:30.090Z,94.45
2022-12-31T12:40:33.362Z,92.95
2022-12-31T12:43:02.378Z,94.98
2022-12-31T12:45:51.746Z,93.20
2022-12-31T12:48:40.304Z,91.12
2022-12-31T12:51:39.545Z,91.95
2022-12-31T12:54:51.952Z,87.95
2022-12-31T12:57:48.890Z,92.25
2022-12-31T13:00:22.223Z,88.90
2022-12-31T13:03:34.520Z,89.50
2022-12-31T13:06:24.454Z,91.02
2022-12-31T13:09:35.615Z,91.93
2022-12-31T13:12:42.788Z,91.45
2022-12-31T13:15:38.910Z,92.04
2022-12-31T13:18:25.040Z,88.40
2022-12-31T13:21:22.912Z,89.97
2022-12-31T13:24:05.178Z,89.57
2022-12-31T13:26:40.500Z,90.14
2022-12-31T13:29:19.718Z,89.38
2022-12-31T13:31:48.965Z,90.71
2022-12-31T13:34:25.199Z,90.66
2022-12-31T13:36:54.393Z,90.95
2022-12-31T13:39:27.588Z,91.56
2022-12-31T13:42:21.919Z,91.21
2022-12-31T13:44:56.441Z,91.85
2022-12-31T13:47:46.917Z,91.49
2022-12-31T13:50:31.682Z,90.15
2022-12-31T13:53:07.516Z,92.06
2022-12-31T13:55:42.521Z,93.15
2022-12-31T13:58:31.492Z,92.44
2022-12-31T14:01:16.340Z,93.83
2022-12-31T14:04:09.308Z,94.06
2022-12-31T14:07:14.490Z,94.88
2022-12-31T14:09:42.358Z,95.42
2022-12-31T14:13:05.456Z,94.46
2022-12-31T14:15:43.114Z,95.50
2022-12-31T14:18:32.484Z,95.46
2022-12-31T14:21:22.755Z,96.92
2022-12-31T14:24:18.793Z,96.75
2022-12-31T14:26:52.768Z,97.28
2022-12-31T14:29:34.087Z,96.93
2022-12-31T14:32:31.034Z,94.47
2022-12-31T14:35:54.125Z,91.92
2022-12-31T14:38:47.404Z,91.67
2022-12-31T14:41:48.144Z,89.53
2022-12-31T14:44:36.377Z,90.50
2022-12-31T14:47:11.980Z,87.71
2022-12-31T14:49:53.356Z,86.80
2022-12-31T14:52:31.936Z,87.16
2022-12-31T14:55:25.135Z,90.11
2022-12-31T14:58:26.363Z,90.17
2022-12-31T15:00:52.360Z,92.49
2022-12-31T15:03:23.336Z,90.29
2022-12-31T15:06:22.494Z,92.35
2022-12-31T15:09:39.339Z,96.71
2022-12-31T15:12:59.814Z,99.18
2022-12-31T15:15:53.115Z,100.00
2022-12-31T15:18:44.881Z,100.00
2022-12-31T15:21:34.800Z,100.00
2022-12-31T15:24:02.397Z,100.00
2022-12-31T15:26:31.768Z,99.92
2022-12-31T15:29:01.417Z,100.00
2022-12-31T15:31:29.163Z,100.00
2022-12-31T15:34:01.810Z,99.95
2022-12-31T15:36:34.452Z,99.99
2022-12-31T15:39:10.351Z,99.95
2022-12-31T15:42:27.600Z,98.95
2022-12-31T15:44:48.448Z,100.00
2022-12-31T15:47:41.837Z,100.00
2022-12-31T15:50:17.925Z,97.44
2022-12-31T15:53:03.664Z,95.97
2022-12-31T15:55:37.816Z,92.61
2022-12-31T15:58:11.225Z,91.44
2022-12-31T16:01:19.685Z,92.62
2022-12-31T16:04:25.482Z,90.64
2022-12-31T16:06:53.000Z,90.14
2022-12-31T16:09:25.662Z,90.87
2022-12-31T16:11:54.858Z,91.02
2022-12-31T16:14:44.217Z,92.34
2022-12-31T16:17:33.119Z,90.11
2022-12-31T16:20:02.190Z,91.08
2022-12-31T16:22:37.932Z,89.99
2022-12-31T16:27:54.982Z,93.53
2022-12-31T16:30:25.714Z,99.06
2022-12-31T16:32:56.382Z,98.31
2022-12-31T16:35:36.442Z,100.00
2022-12-31T16:38:18.747Z,100.00
2022-12-31T16:41:03.772Z,100.00
2022-12-31T16:43:43.106Z,100.00
2022-12-31T16:46:27.026Z,100.00
2022-12-31T16:49:00.827Z,100.00
2022-12-31T16:51:34.214Z,100.00
2022-12-31T16:54:02.439Z,100.00
2022-12-31T16:56:41.705Z,100.00
2022-12-31T16:59:24.144Z,100.00
2022-12-31T17:01:55.916Z,100.00
2022-12-31T17:04:24.036Z,100.00
2022-12-31T17:06:51.018Z,100.00
2022-12-31T17:09:21.850Z,100.00
2022-12-31T17:11:56.179Z,100.00
2022-12-31T17:14:30.431Z,100.00
2022-12-31T17:17:03.558Z,100.00
2022-12-31T17:19:56.491Z,100.00
2022-12-31T17:22:36.240Z,100.00
2022-12-31T17:25:30.269Z,100.00
2022-12-31T17:28:06.857Z,100.00
2022-12-31T17:30:34.530Z,100.00
2022-12-31T17:33:07.424Z,100.00
2022-12-31T17:35:37.287Z,100.00
2022-12-31T17:38:22.258Z,100.00
2022-12-31T17:40:55.653Z,100.00
2022-12-31T17:43:23.950Z,100.00
2022-12-31T17:45:52.775Z,100.00
2022-12-31T17:48:20.512Z,100.00
2022-12-31T17:50:56.915Z,100.00
2022-12-31T17:53:24.141Z,100.00
2022-12-31T17:55:57.372Z,100.00
2022-12-31T17:58:42.662Z,100.00
2022-12-31T18:01:10.337Z,100.00
2022-12-31T18:03:37.216Z,100.00
2022-12-31T18:06:05.317Z,100.00
2022-12-31T18:08:32.228Z,100.00
2022-12-31T18:10:59.022Z,100.00
2022-12-31T18:13:27.707Z,100.00
2022-12-31T18:15:55.226Z,100.00
2022-12-31T18:18:30.084Z,100.00
2022-12-31T18:21:06.647Z,100.00
2022-12-31T18:23:41.829Z,100.00
2022-12-31T18:26:18.399Z,100.00
2022-12-31T18:28:46.141Z,100.00
2022-12-31T18:31:25.268Z,100.00
2022-12-31T18:33:53.775Z,100.00
2022-12-31T18:36:21.839Z,100.00
2022-12-31T18:38:48.916Z,100.00
2022-12-31T18:41:27.779Z,100.00
2022-12-31T18:43:55.781Z,100.00
2022-12-31T18:46:24.632Z,100.00
2022-12-31T18:48:51.478Z,100.00
2022-12-31T18:51:25.135Z,100.00
2022-12-31T18:53:56.597Z,100.00
2022-12-31T18:56:25.115Z,100.00
2022-12-31T18:58:52.042Z,100.00
2022-12-31T19:01:34.691Z,100.00
2022-12-31T19:04:05.135Z,100.00
2022-12-31T19:06:32.012Z,100.00
2022-12-31T19:09:00.823Z,100.00
2022-12-31T19:11:29.053Z,100.00
2022-12-31T19:13:55.826Z,100.00
2022-12-31T19:16:22.650Z,100.00
2022-12-31T19:18:50.675Z,100.00
2022-12-31T19:21:22.346Z,100.00
2022-12-31T19:23:50.518Z,100.00
2022-12-31T19:26:20.367Z,100.00
2022-12-31T19:28:48.752Z,100.00
2022-12-31T19:31:16.446Z,100.00
2022-12-31T19:33:44.255Z,100.00
2022-12-31T19:36:19.476Z,100.00
2022-12-31T19:38:47.295Z,100.00
2022-12-31T19:41:19.863Z,100.00
2022-12-31T19:43:47.993Z,100.00
2022-12-31T19:46:17.789Z,100.00
2022-12-31T19:48:45.241Z,100.00
2022-12-31T19:51:17.402Z,100.00
2022-12-31T19:53:45.708Z,100.00
2022-12-31T19:56:18.990Z,100.00
2022-12-31T19:58:46.251Z,100.00
2022-12-31T20:01:20.930Z,100.00
2022-12-31T20:03:48.232Z,100.00
2022-12-31T20:06:15.636Z,100.00
2022-12-31T20:08:46.433Z,100.00
2022-12-31T20:11:20.163Z,100.00
2022-12-31T20:13:49.418Z,100.00
2022-12-31T20:16:19.019Z,100.00
2022-12-31T20:18:47.867Z,100.00
2022-12-31T20:21:19.392Z,100.00
2022-12-31T20:23:48.563Z,100.00
2022-12-31T20:26:15.387Z,100.00
2022-12-31T20:28:42.187Z,100.00
2022-12-31T20:31:19.163Z,100.00
2022-12-31T20:33:46.070Z,100.00
2022-12-31T20:36:15.908Z,100.00
2022-12-31T20:38:43.159Z,100.00
2022-12-31T20:41:15.993Z,100.00
2022-12-31T20:43:43.337Z,100.00
2022-12-31T20:46:18.962Z,100.00
2022-12-31T20:48:47.894Z,100.00
2022-12-31T20:51:16.802Z,100.00
2022-12-31T20:53:52.006Z,100.00
2022-12-31T20:56:19.190Z,100.00
2022-12-31T20:58:46.081Z,100.00
2022-12-31T21:01:14.214Z,100.00
2022-12-31T21:06:31.389Z,100.00
2022-12-31T21:09:00.780Z,100.00
2022-12-31T21:11:46.573Z,100.00
2022-12-31T21:14:13.458Z,100.00
2022-12-31T21:16:40.343Z,100.00
2022-12-31T21:19:07.241Z,100.00
2022-12-31T21:21:34.062Z,100.00
2022-12-31T21:24:00.884Z,100.00
2022-12-31T21:26:28.910Z,100.00
2022-12-31T21:28:55.683Z,100.00
2022-12-31T21:31:22.611Z,100.00
2022-12-31T21:33:49.521Z,100.00
2022-12-31T21:36:16.758Z,100.00
2022-12-31T21:38:44.113Z,100.00
2022-12-31T21:41:35.052Z,100.00
2022-12-31T21:44:03.132Z,100.00
2022-12-31T21:46:30.381Z,100.00
2022-12-31T21:48:59.508Z,100.00
2022-12-31T21:51:27.279Z,100.00
2022-12-31T21:53:54.434Z,100.00
2022-12-31T21:56:22.466Z,100.00
2022-12-31T21:59:16.856Z,100.00
2022-12-31T22:02:02.422Z,100.00
2022-12-31T22:05:01.384Z,100.00
2022-12-31T22:07:16.226Z,100.00
2022-12-31T22:09:43.049Z,100.00
2022-12-31T22:12:09.842Z,100.00
2022-12-31T22:14:36.728Z,100.00
2022-12-31T22:17:03.614Z,100.00
2022-12-31T22:19:30.492Z,100.00
2022-12-31T22:21:57.326Z,100.00
2022-12-31T22:24:24.082Z,100.00
2022-12-31T22:26:52.075Z,100.00
2022-12-31T22:29:19.700Z,100.00
2022-12-31T22:31:46.566Z,100.00
2022-12-31T22:34:13.363Z,100.00
2022-12-31T22:36:40.515Z,100.00
2022-12-31T22:39:10.351Z,100.00
2022-12-31T22:41:37.312Z,100.00
2022-12-31T22:44:05.003Z,100.00
2022-12-31T22:46:33.523Z,100.00
2022-12-31T22:49:03.077Z,100.00
2022-12-31T22:51:55.040Z,100.00
2022-12-31T22:54:18.175Z,100.00
2022-12-31T22:56:45.046Z,100.00
2022-12-31T22:59:11.812Z,100.00
2022-12-31T23:01:38.691Z,100.00
2022-12-31T23:04:05.615Z,100.00
2022-12-31T23:06:32.772Z,100.00
2022-12-31T23:09:18.383Z,100.00
2022-12-31T23:11:45.183Z,100.00
2022-12-31T23:14:36.168Z,100.00
2022-12-31T23:17:30.776Z,100.00
2022-12-31T23:20:18.828Z,100.00
2022-12-31T23:23:05.981Z,100.00
2022-12-31T23:25:34.930Z,100.00
2022-12-31T23:28:01.834Z,100.00
2022-12-31T23:30:28.805Z,100.00
2022-12-31T23:32:55.691Z,100.00
2022-12-31T23:35:22.488Z,100.00
2022-12-31T23:37:49.541Z,100.00
2022-12-31T23:40:21.134Z,100.00
2022-12-31T23:42:49.659Z,100.00
2022-12-31T23:45:16.558Z,100.00
2022-12-31T23:47:43.499Z,100.00
2022-12-31T23:50:10.493Z,100.00
2022-12-31T23:52:37.420Z,100.00
2022-12-31T23:55:04.916Z,100.00
2022-12-31T23:57:31.851Z,100.00
2022-12-31T23:59:58.744Z,100.00
